sensor_id;sensor_type;location;lat;lon;timestamp;temperature;humidity
25482;DHT22;13395;50.752;4.268;2022-10-30T00:01:43;18.10;99.90
25482;DHT22;13395;50.752;4.268;2022-10-30T00:04:09;18.00;99.90
25482;DHT22;13395;50.752;4.268;2022-10-30T00:06:34;18.00;99.90
25482;DHT22;13395;50.752;4.268;2022-10-30T00:09:00;17.90;99.90
25482;DHT22;13395;50.752;4.268;2022-10-30T00:11:25;17.80;99.90
25482;DHT22;13395;50.752;4.268;2022-10-30T00:13:51;17.70;99.90
25482;DHT22;13395;50.752;4.268;2022-10-30T00:16:16;17.70;99.90
25482;DHT22;13395;50.752;4.268;2022-10-30T00:18:42;17.70;99.90
25482;DHT22;13395;50.752;4.268;2022-10-30T00:21:08;17.60;99.90
25482;DHT22;13395;50.752;4.268;2022-10-30T00:23:34;17.60;99.90
25482;DHT22;13395;50.752;4.268;2022-10-30T00:26:03;17.60;99.90
25482;DHT22;13395;50.752;4.268;2022-10-30T00:28:29;17.60;99.90
25482;DHT22;13395;50.752;4.268;2022-10-30T00:30:57;17.60;99.90
25482;DHT22;13395;50.752;4.268;2022-10-30T00:33:22;17.50;99.90
25482;DHT22;13395;50.752;4.268;2022-10-30T00:35:48;17.40;99.90
25482;DHT22;13395;50.752;4.268;2022-10-30T00:38:13;17.30;99.90
25482;DHT22;13395;50.752;4.268;2022-10-30T00:40:39;17.40;99.90
25482;DHT22;13395;50.752;4.268;2022-10-30T00:43:24;17.30;99.90
25482;DHT22;13395;50.752;4.268;2022-10-30T00:45:50;17.30;99.90
25482;DHT22;13395;50.752;4.268;2022-10-30T00:48:15;17.20;99.90
25482;DHT22;13395;50.752;4.268;2022-10-30T00:50:41;17.20;99.90
25482;DHT22;13395;50.752;4.268;2022-10-30T00:53:08;17.20;99.90
25482;DHT22;13395;50.752;4.268;2022-10-30T00:55:37;17.20;99.90
25482;DHT22;13395;50.752;4.268;2022-10-30T00:58:05;17.10;99.90
25482;DHT22;13395;50.752;4.268;2022-10-30T01:00:32;17.30;99.90
25482;DHT22;13395;50.752;4.268;2022-10-30T01:02:57;17.10;99.90
25482;DHT22;13395;50.752;4.268;2022-10-30T01:05:24;17.10;99.90
25482;DHT22;13395;50.752;4.268;2022-10-30T01:07:50;17.10;99.90
25482;DHT22;13395;50.752;4.268;2022-10-30T01:10:16;17.00;99.90
25482;DHT22;13395;50.752;4.268;2022-10-30T01:12:42;16.90;99.90
25482;DHT22;13395;50.752;4.268;2022-10-30T01:15:08;16.70;99.90
25482;DHT22;13395;50.752;4.268;2022-10-30T01:38:05;16.30;99.90
25482;DHT22;13395;50.752;4.268;2022-10-30T01:40:32;16.20;99.90
25482;DHT22;13395;50.752;4.268;2022-10-30T01:42:57;16.20;99.90
25482;DHT22;13395;50.752;4.268;2022-10-30T01:45:45;16.30;99.90
25482;DHT22;13395;50.752;4.268;2022-10-30T01:48:25;16.20;99.90
25482;DHT22;13395;50.752;4.268;2022-10-30T01:56:14;16.00;99.90
25482;DHT22;13395;50.752;4.268;2022-10-30T02:01:07;15.80;99.90
25482;DHT22;13395;50.752;4.268;2022-10-30T02:03:32;15.80;99.90
25482;DHT22;13395;50.752;4.268;2022-10-30T02:05:58;15.80;99.90
25482;DHT22;13395;50.752;4.268;2022-10-30T02:08:24;15.90;99.90
25482;DHT22;13395;50.752;4.268;2022-10-30T02:10:51;16.00;99.90
25482;DHT22;13395;50.752;4.268;2022-10-30T02:13:17;15.90;99.90
25482;DHT22;13395;50.752;4.268;2022-10-30T02:15:43;15.80;99.90
25482;DHT22;13395;50.752;4.268;2022-10-30T02:18:09;15.70;99.90
25482;DHT22;13395;50.752;4.268;2022-10-30T02:20:35;15.70;99.90
25482;DHT22;13395;50.752;4.268;2022-10-30T02:23:01;15.70;99.90
25482;DHT22;13395;50.752;4.268;2022-10-30T02:25:26;15.60;99.90
25482;DHT22;13395;50.752;4.268;2022-10-30T02:27:52;15.60;99.90
25482;DHT22;13395;50.752;4.268;2022-10-30T02:30:17;15.50;99.90
25482;DHT22;13395;50.752;4.268;2022-10-30T02:32:43;15.50;99.90
25482;DHT22;13395;50.752;4.268;2022-10-30T02:35:08;15.50;99.90
25482;DHT22;13395;50.752;4.268;2022-10-30T02:37:34;15.50;99.90
25482;DHT22;13395;50.752;4.268;2022-10-30T02:40:04;15.40;99.90
25482;DHT22;13395;50.752;4.268;2022-10-30T02:42:30;15.40;99.90
25482;DHT22;13395;50.752;4.268;2022-10-30T02:44:55;15.30;99.90
25482;DHT22;13395;50.752;4.268;2022-10-30T02:47:21;15.30;99.90
25482;DHT22;13395;50.752;4.268;2022-10-30T02:49:46;15.30;99.90
25482;DHT22;13395;50.752;4.268;2022-10-30T02:52:12;15.30;99.90
25482;DHT22;13395;50.752;4.268;2022-10-30T02:54:37;15.30;99.90
25482;DHT22;13395;50.752;4.268;2022-10-30T02:57:03;15.20;99.90
25482;DHT22;13395;50.752;4.268;2022-10-30T02:59:29;15.20;99.90
25482;DHT22;13395;50.752;4.268;2022-10-30T03:01:54;15.20;99.90
25482;DHT22;13395;50.752;4.268;2022-10-30T03:04:20;15.20;99.90
25482;DHT22;13395;50.752;4.268;2022-10-30T03:06:45;15.20;99.90
25482;DHT22;13395;50.752;4.268;2022-10-30T03:09:11;15.20;99.90
25482;DHT22;13395;50.752;4.268;2022-10-30T03:11:36;15.20;99.90
25482;DHT22;13395;50.752;4.268;2022-10-30T03:14:02;15.20;99.90
25482;DHT22;13395;50.752;4.268;2022-10-30T03:16:27;15.20;99.90
25482;DHT22;13395;50.752;4.268;2022-10-30T03:18:58;15.20;99.90
25482;DHT22;13395;50.752;4.268;2022-10-30T03:21:24;15.00;99.90
25482;DHT22;13395;50.752;4.268;2022-10-30T03:23:50;14.80;99.90
25482;DHT22;13395;50.752;4.268;2022-10-30T03:26:16;14.80;99.90
25482;DHT22;13395;50.752;4.268;2022-10-30T03:28:41;14.70;99.90
25482;DHT22;13395;50.752;4.268;2022-10-30T03:31:08;14.80;99.90
25482;DHT22;13395;50.752;4.268;2022-10-30T03:33:34;14.80;99.90
25482;DHT22;13395;50.752;4.268;2022-10-30T03:36:00;14.80;99.90
25482;DHT22;13395;50.752;4.268;2022-10-30T03:38:26;14.70;99.90
25482;DHT22;13395;50.752;4.268;2022-10-30T03:40:52;14.70;99.90
25482;DHT22;13395;50.752;4.268;2022-10-30T03:43:17;14.70;99.90
25482;DHT22;13395;50.752;4.268;2022-10-30T03:45:47;14.80;99.90
25482;DHT22;13395;50.752;4.268;2022-10-30T03:48:13;14.60;99.90
25482;DHT22;13395;50.752;4.268;2022-10-30T03:50:38;14.60;99.90
25482;DHT22;13395;50.752;4.268;2022-10-30T03:53:04;14.60;99.90
25482;DHT22;13395;50.752;4.268;2022-10-30T03:55:29;14.50;99.90
25482;DHT22;13395;50.752;4.268;2022-10-30T03:57:55;14.50;99.90
25482;DHT22;13395;50.752;4.268;2022-10-30T04:00:20;14.50;99.90
25482;DHT22;13395;50.752;4.268;2022-10-30T04:02:49;14.50;99.90
25482;DHT22;13395;50.752;4.268;2022-10-30T04:05:16;14.50;99.90
25482;DHT22;13395;50.752;4.268;2022-10-30T04:07:41;14.50;99.90
25482;DHT22;13395;50.752;4.268;2022-10-30T04:10:07;14.50;99.90
25482;DHT22;13395;50.752;4.268;2022-10-30T04:12:33;14.50;99.90
25482;DHT22;13395;50.752;4.268;2022-10-30T04:14:58;14.50;99.90
25482;DHT22;13395;50.752;4.268;2022-10-30T04:17:24;14.40;99.90
25482;DHT22;13395;50.752;4.268;2022-10-30T04:19:49;14.40;99.90
25482;DHT22;13395;50.752;4.268;2022-10-30T04:22:15;14.30;99.90
25482;DHT22;13395;50.752;4.268;2022-10-30T04:24:40;14.40;99.90
25482;DHT22;13395;50.752;4.268;2022-10-30T04:27:06;14.40;99.90
25482;DHT22;13395;50.752;4.268;2022-10-30T04:29:31;14.50;99.90
25482;DHT22;13395;50.752;4.268;2022-10-30T04:31:57;14.50;99.90
25482;DHT22;13395;50.752;4.268;2022-10-30T04:34:22;14.50;99.90
25482;DHT22;13395;50.752;4.268;2022-10-30T04:36:48;14.60;99.90
25482;DHT22;13395;50.752;4.268;2022-10-30T04:39:13;14.60;99.90
25482;DHT22;13395;50.752;4.268;2022-10-30T04:41:39;14.70;99.90
25482;DHT22;13395;50.752;4.268;2022-10-30T04:44:04;14.70;99.90
25482;DHT22;13395;50.752;4.268;2022-10-30T04:46:30;14.70;99.90
25482;DHT22;13395;50.752;4.268;2022-10-30T04:48:56;14.80;99.90
25482;DHT22;13395;50.752;4.268;2022-10-30T04:51:21;14.90;99.90
25482;DHT22;13395;50.752;4.268;2022-10-30T04:53:47;14.80;99.90
25482;DHT22;13395;50.752;4.268;2022-10-30T04:56:13;14.70;99.90
25482;DHT22;13395;50.752;4.268;2022-10-30T04:58:39;14.70;99.90
25482;DHT22;13395;50.752;4.268;2022-10-30T05:01:05;14.70;99.90
25482;DHT22;13395;50.752;4.268;2022-10-30T05:03:30;14.60;99.90
25482;DHT22;13395;50.752;4.268;2022-10-30T05:06:06;14.60;99.90
25482;DHT22;13395;50.752;4.268;2022-10-30T05:08:32;14.50;99.90
25482;DHT22;13395;50.752;4.268;2022-10-30T05:10:58;14.50;99.90
25482;DHT22;13395;50.752;4.268;2022-10-30T05:13:24;14.50;99.90
25482;DHT22;13395;50.752;4.268;2022-10-30T05:15:49;14.50;99.90
25482;DHT22;13395;50.752;4.268;2022-10-30T05:18:15;14.50;99.90
25482;DHT22;13395;50.752;4.268;2022-10-30T05:20:40;14.50;99.90
25482;DHT22;13395;50.752;4.268;2022-10-30T05:23:06;14.40;99.90
25482;DHT22;13395;50.752;4.268;2022-10-30T05:25:31;14.40;99.90
25482;DHT22;13395;50.752;4.268;2022-10-30T05:27:57;14.40;99.90
25482;DHT22;13395;50.752;4.268;2022-10-30T05:30:24;14.30;99.90
25482;DHT22;13395;50.752;4.268;2022-10-30T05:32:49;14.30;99.90
25482;DHT22;13395;50.752;4.268;2022-10-30T05:35:15;14.20;99.90
25482;DHT22;13395;50.752;4.268;2022-10-30T05:37:40;14.10;99.90
25482;DHT22;13395;50.752;4.268;2022-10-30T05:40:06;14.10;99.90
25482;DHT22;13395;50.752;4.268;2022-10-30T05:42:31;14.10;99.90
25482;DHT22;13395;50.752;4.268;2022-10-30T05:44:57;14.10;99.90
25482;DHT22;13395;50.752;4.268;2022-10-30T05:47:22;14.10;99.90
25482;DHT22;13395;50.752;4.268;2022-10-30T05:49:48;14.10;99.90
25482;DHT22;13395;50.752;4.268;2022-10-30T05:52:13;14.10;99.90
25482;DHT22;13395;50.752;4.268;2022-10-30T05:54:39;14.10;99.90
25482;DHT22;13395;50.752;4.268;2022-10-30T05:57:04;14.20;99.90
25482;DHT22;13395;50.752;4.268;2022-10-30T05:59:30;14.10;99.90
25482;DHT22;13395;50.752;4.268;2022-10-30T06:01:55;14.00;99.90
25482;DHT22;13395;50.752;4.268;2022-10-30T06:04:22;14.00;99.90
25482;DHT22;13395;50.752;4.268;2022-10-30T06:06:47;14.00;99.90
25482;DHT22;13395;50.752;4.268;2022-10-30T06:09:13;14.00;99.90
25482;DHT22;13395;50.752;4.268;2022-10-30T06:11:38;13.90;99.90
25482;DHT22;13395;50.752;4.268;2022-10-30T06:14:04;13.80;99.90
25482;DHT22;13395;50.752;4.268;2022-10-30T06:16:29;13.80;99.90
25482;DHT22;13395;50.752;4.268;2022-10-30T06:18:55;13.80;99.90
25482;DHT22;13395;50.752;4.268;2022-10-30T06:21:20;13.80;99.90
25482;DHT22;13395;50.752;4.268;2022-10-30T06:23:46;13.80;99.90
25482;DHT22;13395;50.752;4.268;2022-10-30T06:26:12;13.70;99.90
25482;DHT22;13395;50.752;4.268;2022-10-30T06:28:37;13.80;99.90
25482;DHT22;13395;50.752;4.268;2022-10-30T06:31:03;13.80;99.90
25482;DHT22;13395;50.752;4.268;2022-10-30T06:33:29;13.80;99.90
25482;DHT22;13395;50.752;4.268;2022-10-30T06:35:54;13.80;99.90
25482;DHT22;13395;50.752;4.268;2022-10-30T06:38:20;13.90;99.90
25482;DHT22;13395;50.752;4.268;2022-10-30T06:40:46;13.80;99.90
25482;DHT22;13395;50.752;4.268;2022-10-30T06:43:12;13.70;99.90
25482;DHT22;13395;50.752;4.268;2022-10-30T06:45:37;13.80;99.90
25482;DHT22;13395;50.752;4.268;2022-10-30T06:48:03;13.80;99.90
25482;DHT22;13395;50.752;4.268;2022-10-30T06:50:28;13.80;99.90
25482;DHT22;13395;50.752;4.268;2022-10-30T06:52:54;13.80;99.90
25482;DHT22;13395;50.752;4.268;2022-10-30T06:55:19;13.90;99.90
25482;DHT22;13395;50.752;4.268;2022-10-30T06:57:45;13.90;99.90
25482;DHT22;13395;50.752;4.268;2022-10-30T07:00:11;14.00;99.90
25482;DHT22;13395;50.752;4.268;2022-10-30T07:02:37;14.10;99.90
25482;DHT22;13395;50.752;4.268;2022-10-30T07:05:02;14.10;99.90
25482;DHT22;13395;50.752;4.268;2022-10-30T07:07:28;14.00;99.90
25482;DHT22;13395;50.752;4.268;2022-10-30T07:09:54;14.00;99.90
25482;DHT22;13395;50.752;4.268;2022-10-30T07:12:20;14.10;99.90
25482;DHT22;13395;50.752;4.268;2022-10-30T07:14:45;14.10;99.90
25482;DHT22;13395;50.752;4.268;2022-10-30T07:17:11;14.20;99.90
25482;DHT22;13395;50.752;4.268;2022-10-30T07:19:36;14.30;99.90
25482;DHT22;13395;50.752;4.268;2022-10-30T07:22:02;14.40;99.90
25482;DHT22;13395;50.752;4.268;2022-10-30T07:24:27;14.50;99.90
25482;DHT22;13395;50.752;4.268;2022-10-30T07:26:53;14.60;99.90
25482;DHT22;13395;50.752;4.268;2022-10-30T07:29:19;14.70;99.90
25482;DHT22;13395;50.752;4.268;2022-10-30T07:31:45;14.80;99.90
25482;DHT22;13395;50.752;4.268;2022-10-30T07:34:10;14.90;99.90
25482;DHT22;13395;50.752;4.268;2022-10-30T07:36:36;14.90;99.90
25482;DHT22;13395;50.752;4.268;2022-10-30T07:39:01;15.10;99.90
25482;DHT22;13395;50.752;4.268;2022-10-30T07:41:27;15.20;99.90
25482;DHT22;13395;50.752;4.268;2022-10-30T07:43:52;15.30;99.90
25482;DHT22;13395;50.752;4.268;2022-10-30T07:46:18;15.50;99.90
25482;DHT22;13395;50.752;4.268;2022-10-30T07:48:43;15.60;99.90
25482;DHT22;13395;50.752;4.268;2022-10-30T07:51:09;15.70;99.90
25482;DHT22;13395;50.752;4.268;2022-10-30T07:53:34;15.70;99.90
25482;DHT22;13395;50.752;4.268;2022-10-30T07:56:00;15.80;99.90
25482;DHT22;13395;50.752;4.268;2022-10-30T07:58:25;15.80;99.90
25482;DHT22;13395;50.752;4.268;2022-10-30T08:00:51;16.00;99.90
25482;DHT22;13395;50.752;4.268;2022-10-30T08:03:16;16.20;99.90
25482;DHT22;13395;50.752;4.268;2022-10-30T08:05:42;16.50;99.90
25482;DHT22;13395;50.752;4.268;2022-10-30T08:08:07;16.60;99.90
25482;DHT22;13395;50.752;4.268;2022-10-30T08:10:33;16.70;99.90
25482;DHT22;13395;50.752;4.268;2022-10-30T08:12:59;16.80;99.90
25482;DHT22;13395;50.752;4.268;2022-10-30T08:15:25;16.90;99.90
25482;DHT22;13395;50.752;4.268;2022-10-30T08:17:50;16.80;99.90
25482;DHT22;13395;50.752;4.268;2022-10-30T08:20:17;16.70;99.90
25482;DHT22;13395;50.752;4.268;2022-10-30T08:22:47;16.80;99.90
25482;DHT22;13395;50.752;4.268;2022-10-30T08:25:13;16.90;99.90
25482;DHT22;13395;50.752;4.268;2022-10-30T08:27:39;17.00;99.90
25482;DHT22;13395;50.752;4.268;2022-10-30T08:30:04;17.00;99.90
25482;DHT22;13395;50.752;4.268;2022-10-30T08:32:30;17.10;99.90
25482;DHT22;13395;50.752;4.268;2022-10-30T08:34:55;17.20;99.90
25482;DHT22;13395;50.752;4.268;2022-10-30T08:37:21;17.40;99.90
25482;DHT22;13395;50.752;4.268;2022-10-30T08:39:46;17.70;99.90
25482;DHT22;13395;50.752;4.268;2022-10-30T08:42:12;18.50;99.90
25482;DHT22;13395;50.752;4.268;2022-10-30T08:44:37;19.40;99.90
25482;DHT22;13395;50.752;4.268;2022-10-30T08:47:03;20.00;99.90
25482;DHT22;13395;50.752;4.268;2022-10-30T08:49:28;20.40;99.90
25482;DHT22;13395;50.752;4.268;2022-10-30T08:51:54;20.60;99.90
25482;DHT22;13395;50.752;4.268;2022-10-30T08:54:19;20.60;99.90
25482;DHT22;13395;50.752;4.268;2022-10-30T08:56:45;21.20;99.90
25482;DHT22;13395;50.752;4.268;2022-10-30T08:59:10;21.90;99.90
25482;DHT22;13395;50.752;4.268;2022-10-30T09:01:36;22.80;99.90
25482;DHT22;13395;50.752;4.268;2022-10-30T09:04:01;23.50;99.90
25482;DHT22;13395;50.752;4.268;2022-10-30T09:06:28;24.20;99.90
25482;DHT22;13395;50.752;4.268;2022-10-30T09:08:54;25.10;99.90
25482;DHT22;13395;50.752;4.268;2022-10-30T09:11:19;25.80;99.90
25482;DHT22;13395;50.752;4.268;2022-10-30T09:13:45;26.00;99.90
25482;DHT22;13395;50.752;4.268;2022-10-30T09:16:10;25.90;99.90
25482;DHT22;13395;50.752;4.268;2022-10-30T09:18:35;25.70;99.90
25482;DHT22;13395;50.752;4.268;2022-10-30T09:21:01;25.00;99.90
25482;DHT22;13395;50.752;4.268;2022-10-30T09:23:26;24.60;99.90
25482;DHT22;13395;50.752;4.268;2022-10-30T09:25:55;24.50;99.90
25482;DHT22;13395;50.752;4.268;2022-10-30T09:28:21;24.50;99.90
25482;DHT22;13395;50.752;4.268;2022-10-30T09:30:46;24.40;99.90
25482;DHT22;13395;50.752;4.268;2022-10-30T09:33:17;24.50;99.90
25482;DHT22;13395;50.752;4.268;2022-10-30T09:35:42;24.70;99.90
25482;DHT22;13395;50.752;4.268;2022-10-30T09:38:08;24.50;99.90
25482;DHT22;13395;50.752;4.268;2022-10-30T09:40:43;24.50;99.90
25482;DHT22;13395;50.752;4.268;2022-10-30T09:46:14;24.80;99.90
25482;DHT22;13395;50.752;4.268;2022-10-30T09:51:32;25.20;99.90
25482;DHT22;13395;50.752;4.268;2022-10-30T09:56:32;25.30;99.70
25482;DHT22;13395;50.752;4.268;2022-10-30T10:04:07;24.50;99.30
25482;DHT22;13395;50.752;4.268;2022-10-30T10:06:39;24.20;99.70
25482;DHT22;13395;50.752;4.268;2022-10-30T10:09:11;23.90;99.90
25482;DHT22;13395;50.752;4.268;2022-10-30T10:11:40;23.50;99.90
25482;DHT22;13395;50.752;4.268;2022-10-30T10:14:08;23.20;99.90
25482;DHT22;13395;50.752;4.268;2022-10-30T10:16:37;22.90;99.90
25482;DHT22;13395;50.752;4.268;2022-10-30T10:21:52;22.90;99.90
25482;DHT22;13395;50.752;4.268;2022-10-30T10:24:24;23.10;99.90
25482;DHT22;13395;50.752;4.268;2022-10-30T10:26:55;23.10;99.90
25482;DHT22;13395;50.752;4.268;2022-10-30T10:34:42;22.70;99.90
25482;DHT22;13395;50.752;4.268;2022-10-30T10:42:59;22.60;99.90
25482;DHT22;13395;50.752;4.268;2022-10-30T10:50:51;22.70;99.90
25482;DHT22;13395;50.752;4.268;2022-10-30T10:53:21;22.80;99.90
25482;DHT22;13395;50.752;4.268;2022-10-30T10:55:50;22.90;99.90
25482;DHT22;13395;50.752;4.268;2022-10-30T10:59:00;23.20;99.90
25482;DHT22;13395;50.752;4.268;2022-10-30T11:01:08;23.30;99.90
25482;DHT22;13395;50.752;4.268;2022-10-30T11:03:43;23.30;99.90
25482;DHT22;13395;50.752;4.268;2022-10-30T11:06:17;23.40;99.90
25482;DHT22;13395;50.752;4.268;2022-10-30T11:08:44;23.60;99.90
25482;DHT22;13395;50.752;4.268;2022-10-30T11:11:10;24.20;99.90
25482;DHT22;13395;50.752;4.268;2022-10-30T11:13:36;24.70;99.90
25482;DHT22;13395;50.752;4.268;2022-10-30T11:16:12;24.90;99.90
25482;DHT22;13395;50.752;4.268;2022-10-30T11:18:40;25.20;99.90
25482;DHT22;13395;50.752;4.268;2022-10-30T11:21:08;25.30;99.90
25482;DHT22;13395;50.752;4.268;2022-10-30T11:23:41;25.20;99.90
25482;DHT22;13395;50.752;4.268;2022-10-30T11:31:20;24.80;99.90
25482;DHT22;13395;50.752;4.268;2022-10-30T11:33:46;24.50;99.90
25482;DHT22;13395;50.752;4.268;2022-10-30T11:36:16;24.50;99.90
25482;DHT22;13395;50.752;4.268;2022-10-30T11:38:41;24.40;99.90
25482;DHT22;13395;50.752;4.268;2022-10-30T11:41:07;24.10;99.90
25482;DHT22;13395;50.752;4.268;2022-10-30T11:43:34;24.00;99.90
25482;DHT22;13395;50.752;4.268;2022-10-30T11:46:01;23.70;99.90
25482;DHT22;13395;50.752;4.268;2022-10-30T11:48:28;23.60;99.90
25482;DHT22;13395;50.752;4.268;2022-10-30T11:50:55;23.40;99.90
25482;DHT22;13395;50.752;4.268;2022-10-30T11:53:24;23.30;99.90
25482;DHT22;13395;50.752;4.268;2022-10-30T11:55:54;23.10;99.90
25482;DHT22;13395;50.752;4.268;2022-10-30T11:58:21;22.90;99.90
25482;DHT22;13395;50.752;4.268;2022-10-30T12:00:59;23.10;99.90
25482;DHT22;13395;50.752;4.268;2022-10-30T12:03:27;23.20;99.90
25482;DHT22;13395;50.752;4.268;2022-10-30T12:05:54;23.30;99.90
25482;DHT22;13395;50.752;4.268;2022-10-30T12:08:30;23.30;99.90
25482;DHT22;13395;50.752;4.268;2022-10-30T12:10:57;23.20;99.90
25482;DHT22;13395;50.752;4.268;2022-10-30T12:13:24;23.20;99.90
25482;DHT22;13395;50.752;4.268;2022-10-30T12:16:02;23.20;99.90
25482;DHT22;13395;50.752;4.268;2022-10-30T12:18:28;23.40;99.90
25482;DHT22;13395;50.752;4.268;2022-10-30T12:20:55;23.60;99.90
25482;DHT22;13395;50.752;4.268;2022-10-30T12:23:24;24.00;99.80
25482;DHT22;13395;50.752;4.268;2022-10-30T12:25:51;24.60;99.90
25482;DHT22;13395;50.752;4.268;2022-10-30T12:28:21;24.90;98.40
25482;DHT22;13395;50.752;4.268;2022-10-30T12:33:19;25.90;98.20
25482;DHT22;13395;50.752;4.268;2022-10-30T12:35:48;25.90;96.50
25482;DHT22;13395;50.752;4.268;2022-10-30T12:38:20;26.40;96.80
25482;DHT22;13395;50.752;4.268;2022-10-30T12:41:01;26.90;95.60
25482;DHT22;13395;50.752;4.268;2022-10-30T12:43:28;28.30;95.20
25482;DHT22;13395;50.752;4.268;2022-10-30T12:46:00;28.90;93.30
25482;DHT22;13395;50.752;4.268;2022-10-30T12:48:30;29.30;92.10
25482;DHT22;13395;50.752;4.268;2022-10-30T12:53:37;29.30;90.10
25482;DHT22;13395;50.752;4.268;2022-10-30T12:56:07;29.60;91.20
25482;DHT22;13395;50.752;4.268;2022-10-30T12:58:48;29.50;89.90
25482;DHT22;13395;50.752;4.268;2022-10-30T13:01:32;29.70;90.40
25482;DHT22;13395;50.752;4.268;2022-10-30T13:04:09;29.40;88.10
25482;DHT22;13395;50.752;4.268;2022-10-30T13:06:41;29.30;87.80
25482;DHT22;13395;50.752;4.268;2022-10-30T13:09:17;28.90;88.10
25482;DHT22;13395;50.752;4.268;2022-10-30T13:11:50;28.90;88.30
25482;DHT22;13395;50.752;4.268;2022-10-30T13:14:19;28.80;90.10
25482;DHT22;13395;50.752;4.268;2022-10-30T13:16:46;28.80;90.40
25482;DHT22;13395;50.752;4.268;2022-10-30T13:19:11;28.40;89.00
25482;DHT22;13395;50.752;4.268;2022-10-30T13:26:38;28.00;90.00
25482;DHT22;13395;50.752;4.268;2022-10-30T13:29:12;28.20;90.50
25482;DHT22;13395;50.752;4.268;2022-10-30T13:31:57;28.10;90.00
25482;DHT22;13395;50.752;4.268;2022-10-30T13:34:39;28.30;89.20
25482;DHT22;13395;50.752;4.268;2022-10-30T13:39:42;28.00;89.50
25482;DHT22;13395;50.752;4.268;2022-10-30T13:44:44;28.20;88.70
25482;DHT22;13395;50.752;4.268;2022-10-30T13:47:19;27.90;88.70
25482;DHT22;13395;50.752;4.268;2022-10-30T13:49:48;27.50;89.90
25482;DHT22;13395;50.752;4.268;2022-10-30T13:52:19;27.30;90.60
25482;DHT22;13395;50.752;4.268;2022-10-30T13:57:38;27.40;90.80
25482;DHT22;13395;50.752;4.268;2022-10-30T14:00:15;26.90;90.70
25482;DHT22;13395;50.752;4.268;2022-10-30T14:08:01;25.00;92.80
25482;DHT22;13395;50.752;4.268;2022-10-30T14:10:46;24.70;94.40
25482;DHT22;13395;50.752;4.268;2022-10-30T14:20:41;23.20;96.40
25482;DHT22;13395;50.752;4.268;2022-10-30T14:23:12;23.20;97.60
25482;DHT22;13395;50.752;4.268;2022-10-30T14:25:38;23.00;97.80
25482;DHT22;13395;50.752;4.268;2022-10-30T14:28:04;22.60;98.50
25482;DHT22;13395;50.752;4.268;2022-10-30T14:30:30;22.30;99.20
25482;DHT22;13395;50.752;4.268;2022-10-30T14:32:58;22.00;99.90
25482;DHT22;13395;50.752;4.268;2022-10-30T14:35:33;21.70;99.90
25482;DHT22;13395;50.752;4.268;2022-10-30T14:40:35;21.20;99.90
25482;DHT22;13395;50.752;4.268;2022-10-30T14:46:02;21.00;99.90
25482;DHT22;13395;50.752;4.268;2022-10-30T14:53:41;21.00;99.90
25482;DHT22;13395;50.752;4.268;2022-10-30T14:58:41;20.80;99.90
25482;DHT22;13395;50.752;4.268;2022-10-30T15:11:49;20.20;99.90
25482;DHT22;13395;50.752;4.268;2022-10-30T15:14:28;20.20;99.90
25482;DHT22;13395;50.752;4.268;2022-10-30T15:16:56;20.20;99.90
25482;DHT22;13395;50.752;4.268;2022-10-30T15:19:22;20.20;99.90
25482;DHT22;13395;50.752;4.268;2022-10-30T15:21:49;20.10;99.90
25482;DHT22;13395;50.752;4.268;2022-10-30T15:24:16;20.20;99.90
25482;DHT22;13395;50.752;4.268;2022-10-30T15:26:43;20.20;99.90
25482;DHT22;13395;50.752;4.268;2022-10-30T15:29:18;20.00;99.90
25482;DHT22;13395;50.752;4.268;2022-10-30T15:31:44;19.90;99.90
25482;DHT22;13395;50.752;4.268;2022-10-30T15:34:24;19.90;99.90
25482;DHT22;13395;50.752;4.268;2022-10-30T15:36:50;19.90;99.90
25482;DHT22;13395;50.752;4.268;2022-10-30T15:39:16;19.90;99.90
25482;DHT22;13395;50.752;4.268;2022-10-30T15:44:17;19.90;99.90
25482;DHT22;13395;50.752;4.268;2022-10-30T15:46:46;19.90;99.90
25482;DHT22;13395;50.752;4.268;2022-10-30T15:49:13;20.00;99.90
25482;DHT22;13395;50.752;4.268;2022-10-30T15:51:41;19.90;99.90
25482;DHT22;13395;50.752;4.268;2022-10-30T15:54:08;19.80;99.90
25482;DHT22;13395;50.752;4.268;2022-10-30T15:56:36;19.90;99.90
25482;DHT22;13395;50.752;4.268;2022-10-30T15:59:03;19.80;99.90
25482;DHT22;13395;50.752;4.268;2022-10-30T16:01:30;19.70;99.90
25482;DHT22;13395;50.752;4.268;2022-10-30T16:03:56;19.70;99.90
25482;DHT22;13395;50.752;4.268;2022-10-30T16:06:29;19.70;99.90
25482;DHT22;13395;50.752;4.268;2022-10-30T16:08:55;19.60;99.90
25482;DHT22;13395;50.752;4.268;2022-10-30T16:11:20;19.70;99.90
25482;DHT22;13395;50.752;4.268;2022-10-30T16:13:47;19.70;99.90
25482;DHT22;13395;50.752;4.268;2022-10-30T16:16:16;19.60;99.90
25482;DHT22;13395;50.752;4.268;2022-10-30T16:18:43;19.60;99.90
25482;DHT22;13395;50.752;4.268;2022-10-30T16:21:11;19.50;99.90
25482;DHT22;13395;50.752;4.268;2022-10-30T16:23:45;19.40;99.90
25482;DHT22;13395;50.752;4.268;2022-10-30T16:28:46;19.40;99.90
25482;DHT22;13395;50.752;4.268;2022-10-30T16:31:12;19.30;99.90
25482;DHT22;13395;50.752;4.268;2022-10-30T16:33:40;19.30;99.90
25482;DHT22;13395;50.752;4.268;2022-10-30T16:36:07;19.40;99.90
25482;DHT22;13395;50.752;4.268;2022-10-30T16:38:36;19.40;99.90
25482;DHT22;13395;50.752;4.268;2022-10-30T16:41:06;19.50;99.90
25482;DHT22;13395;50.752;4.268;2022-10-30T16:43:32;19.30;99.90
25482;DHT22;13395;50.752;4.268;2022-10-30T16:48:39;19.40;99.90
25482;DHT22;13395;50.752;4.268;2022-10-30T16:51:11;19.20;99.90
25482;DHT22;13395;50.752;4.268;2022-10-30T16:53:37;19.10;99.90
25482;DHT22;13395;50.752;4.268;2022-10-30T16:56:03;19.00;99.90
25482;DHT22;13395;50.752;4.268;2022-10-30T16:58:38;18.80;99.90
25482;DHT22;13395;50.752;4.268;2022-10-30T17:01:04;18.70;99.90
25482;DHT22;13395;50.752;4.268;2022-10-30T17:03:32;18.70;99.90
25482;DHT22;13395;50.752;4.268;2022-10-30T17:06:00;18.60;99.90
25482;DHT22;13395;50.752;4.268;2022-10-30T17:08:36;18.60;99.90
25482;DHT22;13395;50.752;4.268;2022-10-30T17:11:14;18.50;99.90
25482;DHT22;13395;50.752;4.268;2022-10-30T17:16:23;18.30;99.90
25482;DHT22;13395;50.752;4.268;2022-10-30T17:18:49;18.30;99.90
25482;DHT22;13395;50.752;4.268;2022-10-30T17:21:16;18.30;99.90
25482;DHT22;13395;50.752;4.268;2022-10-30T17:23:43;18.30;99.90
25482;DHT22;13395;50.752;4.268;2022-10-30T17:26:09;18.10;99.90
25482;DHT22;13395;50.752;4.268;2022-10-30T17:28:36;18.10;99.90
25482;DHT22;13395;50.752;4.268;2022-10-30T17:33:43;18.00;99.90
25482;DHT22;13395;50.752;4.268;2022-10-30T17:36:09;18.00;99.90
25482;DHT22;13395;50.752;4.268;2022-10-30T17:38:34;17.90;99.90
25482;DHT22;13395;50.752;4.268;2022-10-30T17:41:00;17.90;99.90
25482;DHT22;13395;50.752;4.268;2022-10-30T17:43:30;17.80;99.90
25482;DHT22;13395;50.752;4.268;2022-10-30T17:45:57;17.80;99.90